Aeroporto :
LOGIN :

Iscrizione | Disclaimer

   EN    FR    IT 

 










Sommario :    VFR   VFR Marginale   IFR   IFR Intensivo   IFR Molto Intensivo
Visibilità : 
Base nubi : 
>= 8 km
>= 3000ft
5 / 8 km
1000 / 3000 ft
1500m / 5 km
500 / 1000 ft
800 / 1500m
200 / 500 ft
< 800m
< 200 ft
Simboli :   Temporali  Nebbia  Neve Forte  Precipitazioni Forti  Vento > 20 kt
SIGMETs :   Varie  Temporali  Ghiacco  Turbolenza  Onda orograficha  Ceneri Vulcaniche







- Altitudine del aeroporto : 1367 ft
- Codice IATA : FDH


EDNY - Friedrichshafen

ULTIMO METAR :
  • 182250Z AUTO 03005KT 9999 // NCD 13/03 Q1023

METARs OBSOLETI :
  • 182220Z AUTO 03005KT 9999 // NCD 13/04 Q1023
  • 182150Z AUTO 36003KT 9999 // NCD 13/04 Q1023
  • 182120Z AUTO 02004KT 9999 // NCD 14/04 Q1023
  • 182050Z AUTO 04006KT 9999 // NCD 15/04 Q1022
  • 182020Z AUTO 04006KT 9999 // NCD 15/04 Q1022

TAF TAF EDNY
Valido dal 18 a 18 ore il 19 a 18 ore UTC


181700Z 1818/1918 04005KT CAVOK
BECMG 1909/1911 23005KT
BECMG 1913/1914 04007KT
Nessun NOTAM noto per questo aeroporto.



MetMap, La meteo Aeronautica in un colpo d'occhio ! - Copyright ORBIFLY Dicembre 2007 - Disclaimer

ORBIFLY MET'MAP TEAM :

Programmazione e sviluppo : Alexandra Zaïnal
Concezione e sviluppo : Baudouin d'Aumeries
Co-Programmazione e sviluppo : Marc-Olivier Méhu
Supporto tecnico e logistico : Manuel Goepfert
Aiuto per la traduzione : Arnaldo La Scala

Contatto : metmap@orbifly.com




FONTI E CREDITI :

   NOAA